Time,TemperatureF,DewpointF,PressureIn,WindDirection,WindDirectionDegrees,WindSpeedMPH,WindSpeedGustMPH,Humidity,HourlyPrecipIn,Conditions,Clouds,dailyrainin,SoftwareType,DateUTC
2013-02-21 00:00:00,22.9,16.8,30.32,NNW,336,0.0,0.0,77,0.00,,,0.00,Wunderground v.1.13,2013-02-21 05:00:00,
2013-02-21 00:01:00,22.9,16.8,30.31,NNW,336,0.0,0.0,77,0.00,,,0.00,Wunderground v.1.13,2013-02-21 05:01:00,
2013-02-21 00:02:00,22.9,16.8,30.31,NNW,336,0.0,0.0,77,0.00,,,0.00,Wunderground v.1.13,2013-02-21 05:02:00,
2013-02-21 00:04:00,22.9,16.8,30.31,NNW,336,0.0,0.0,77,0.00,,,0.00,Wunderground v.1.13,2013-02-21 05:04:00,
2013-02-21 00:09:00,22.8,16.7,30.30,NNW,336,0.0,0.0,77,0.00,,,0.00,Wunderground v.1.13,2013-02-21 05:09:00,
2013-02-21 00:15:00,22.7,16.9,30.30,NNW,336,0.0,0.0,78,0.00,,,0.00,Wunderground v.1.13,2013-02-21 05:15:00,
2013-02-21 00:20:00,22.7,16.9,30.29,NNW,336,0.0,0.0,78,0.00,,,0.00,Wunderground v.1.13,2013-02-21 05:20:00,
2013-02-21 00:26:00,22.5,16.7,30.29,NNW,336,0.0,0.0,78,0.00,,,0.00,Wunderground v.1.13,2013-02-21 05:26:00,
2013-02-21 00:31:00,22.3,16.5,30.30,NNW,336,0.0,0.0,78,0.00,,,0.00,Wunderground v.1.13,2013-02-21 05:31:00,
2013-02-21 00:37:00,22.1,16.6,30.30,NNW,336,0.0,0.0,79,0.00,,,0.00,Wunderground v.1.13,2013-02-21 05:37:00,
2013-02-21 00:42:00,22.1,16.9,30.30,NNW,336,0.0,0.0,80,0.00,,,0.00,Wunderground v.1.13,2013-02-21 05:42:00,
2013-02-21 00:47:00,22.0,16.8,30.30,NNW,336,0.0,0.0,80,0.00,,,0.00,Wunderground v.1.13,2013-02-21 05:47:00,
2013-02-21 00:53:00,21.8,16.6,30.31,NNW,336,0.0,0.0,80,0.00,,,0.00,Wunderground v.1.13,2013-02-21 05:53:00,
2013-02-21 00:58:00,21.7,16.5,30.31,NNW,336,0.0,0.0,80,0.00,,,0.00,Wunderground v.1.13,2013-02-21 05:58:00,
2013-02-21 01:03:00,21.6,16.4,30.32,NNW,336,0.0,0.0,80,0.00,,,0.00,Wunderground v.1.13,2013-02-21 06:03:00,
2013-02-21 01:09:00,21.4,16.2,30.31,NNW,336,0.0,0.0,80,0.00,,,0.00,Wunderground v.1.13,2013-02-21 06:09:00,
2013-02-21 01:15:00,21.2,16.3,30.31,NNW,336,0.0,0.0,81,0.00,,,0.00,Wunderground v.1.13,2013-02-21 06:15:00,
2013-02-21 01:20:00,21.1,16.2,30.31,NNW,336,0.0,0.0,81,0.00,,,0.00,Wunderground v.1.13,2013-02-21 06:20:00,
2013-02-21 01:26:00,21.1,16.2,30.31,NNW,336,0.0,0.0,81,0.00,,,0.00,Wunderground v.1.13,2013-02-21 06:26:00,
2013-02-21 01:31:00,21.2,16.6,30.32,NNW,336,0.0,0.0,82,0.00,,,0.00,Wunderground v.1.13,2013-02-21 06:31:00,
2013-02-21 01:37:00,21.2,16.6,30.32,NNW,336,0.0,0.0,82,0.00,,,0.00,Wunderground v.1.13,2013-02-21 06:37:00,
2013-02-21 01:42:00,21.2,16.6,30.32,NNW,336,0.0,0.0,82,0.00,,,0.00,Wunderground v.1.13,2013-02-21 06:42:00,
2013-02-21 01:48:00,21.2,16.6,30.32,NNW,336,0.0,0.0,82,0.00,,,0.00,Wunderground v.1.13,2013-02-21 06:48:00,
2013-02-21 01:53:00,21.1,16.5,30.32,NNW,336,0.0,0.0,82,0.00,,,0.00,Wunderground v.1.13,2013-02-21 06:53:00,
2013-02-21 01:59:00,21.0,16.4,30.32,NNW,336,0.0,0.0,82,0.00,,,0.00,Wunderground v.1.13,2013-02-21 06:59:00,
2013-02-21 02:04:00,20.8,16.2,30.32,NNW,336,0.0,0.0,82,0.00,,,0.00,Wunderground v.1.13,2013-02-21 07:04:00,
2013-02-21 02:09:00,20.7,16.4,30.32,NNW,336,0.0,0.0,83,0.00,,,0.00,Wunderground v.1.13,2013-02-21 07:09:00,
2013-02-21 02:15:00,20.5,16.2,30.32,NNW,336,0.0,0.0,83,0.00,,,0.00,Wunderground v.1.13,2013-02-21 07:15:00,
2013-02-21 02:20:00,20.4,16.1,30.32,NNW,336,0.0,0.0,83,0.00,,,0.00,Wunderground v.1.13,2013-02-21 07:20:00,
2013-02-21 02:26:00,20.3,16.0,30.32,NNW,336,0.0,0.0,83,0.00,,,0.00,Wunderground v.1.13,2013-02-21 07:26:00,
2013-02-21 02:32:00,20.2,15.9,30.32,NNW,336,0.0,0.0,83,0.00,,,0.00,Wunderground v.1.13,2013-02-21 07:32:00,
2013-02-21 02:38:00,20.1,15.8,30.32,NNW,336,0.0,0.0,83,0.00,,,0.00,Wunderground v.1.13,2013-02-21 07:38:00,
2013-02-21 02:43:00,20.0,15.7,30.32,NNW,336,0.0,0.0,83,0.00,,,0.00,Wunderground v.1.13,2013-02-21 07:43:00,
2013-02-21 02:49:00,19.8,15.5,30.32,NNW,336,0.0,0.0,83,0.00,,,0.00,Wunderground v.1.13,2013-02-21 07:49:00,
2013-02-21 02:54:00,19.7,15.6,30.32,NNW,336,0.0,0.0,84,0.00,,,0.00,Wunderground v.1.13,2013-02-21 07:54:00,
2013-02-21 03:00:00,19.7,15.6,30.32,NNW,336,0.0,0.0,84,0.00,,,0.00,Wunderground v.1.13,2013-02-21 08:00:00,
2013-02-21 03:05:00,19.7,15.6,30.32,NNW,336,0.0,0.0,84,0.00,,,0.00,Wunderground v.1.13,2013-02-21 08:05:00,
2013-02-21 03:11:00,19.7,15.6,30.32,NNW,336,0.0,0.0,84,0.00,,,0.00,Wunderground v.1.13,2013-02-21 08:11:00,
2013-02-21 03:16:00,19.4,15.4,30.32,NNW,336,0.0,0.0,84,0.00,,,0.00,Wunderground v.1.13,2013-02-21 08:16:00,
2013-02-21 03:22:00,19.3,15.3,30.32,NNW,336,0.0,0.0,84,0.00,,,0.00,Wunderground v.1.13,2013-02-21 08:22:00,
2013-02-21 03:27:00,19.3,15.3,30.31,NNW,336,0.0,0.0,84,0.00,,,0.00,Wunderground v.1.13,2013-02-21 08:27:00,
2013-02-21 03:33:00,19.2,15.4,30.31,NNW,336,0.0,0.0,85,0.00,,,0.00,Wunderground v.1.13,2013-02-21 08:33:00,
2013-02-21 03:39:00,19.2,15.4,30.31,NNW,336,0.0,0.0,85,0.00,,,0.00,Wunderground v.1.13,2013-02-21 08:39:00,
2013-02-21 03:44:00,19.1,15.3,30.31,NNW,336,0.0,0.0,85,0.00,,,0.00,Wunderground v.1.13,2013-02-21 08:44:00,
2013-02-21 03:50:00,19.0,15.2,30.31,NNW,336,0.0,0.0,85,0.00,,,0.00,Wunderground v.1.13,2013-02-21 08:50:00,
2013-02-21 03:56:00,19.1,15.3,30.31,NNW,336,0.0,0.0,85,0.00,,,0.00,Wunderground v.1.13,2013-02-21 08:56:00,
2013-02-21 04:01:00,19.1,15.3,30.31,NNW,336,0.0,0.0,85,0.00,,,0.00,Wunderground v.1.13,2013-02-21 09:01:00,
2013-02-21 04:07:00,19.1,15.3,30.30,NNW,336,0.0,1.0,85,0.00,,,0.00,Wunderground v.1.13,2013-02-21 09:07:00,
2013-02-21 04:13:00,19.2,15.7,30.31,NNW,336,0.0,0.0,86,0.00,,,0.00,Wunderground v.1.13,2013-02-21 09:13:00,
2013-02-21 04:18:00,19.2,15.7,30.31,NNW,336,0.0,0.0,86,0.00,,,0.00,Wunderground v.1.13,2013-02-21 09:18:00,
2013-02-21 04:24:00,19.1,15.6,30.31,NNW,336,0.0,0.0,86,0.00,,,0.00,Wunderground v.1.13,2013-02-21 09:24:00,
2013-02-21 04:29:00,19.1,15.6,30.31,NNW,336,0.0,0.0,86,0.00,,,0.00,Wunderground v.1.13,2013-02-21 09:29:00,
2013-02-21 04:34:00,19.0,15.5,30.31,NNW,336,0.0,0.0,86,0.00,,,0.00,Wunderground v.1.13,2013-02-21 09:34:00,
2013-02-21 04:40:00,19.0,15.5,30.32,NNW,336,0.0,0.0,86,0.00,,,0.00,Wunderground v.1.13,2013-02-21 09:40:00,
2013-02-21 04:46:00,19.0,15.5,30.32,NNW,336,0.0,0.0,86,0.00,,,0.00,Wunderground v.1.13,2013-02-21 09:46:00,
2013-02-21 04:51:00,19.0,15.5,30.32,NNW,336,0.0,0.0,86,0.00,,,0.00,Wunderground v.1.13,2013-02-21 09:51:00,
2013-02-21 04:57:00,19.0,15.5,30.32,NNW,336,0.0,0.0,86,0.00,,,0.00,Wunderground v.1.13,2013-02-21 09:57:00,
2013-02-21 05:03:00,18.9,15.4,30.32,NNW,336,0.0,0.0,86,0.00,,,0.00,Wunderground v.1.13,2013-02-21 10:03:00,
2013-02-21 05:08:00,18.9,15.7,30.32,NNW,336,0.0,0.0,87,0.00,,,0.00,Wunderground v.1.13,2013-02-21 10:08:00,
2013-02-21 05:14:00,18.8,15.3,30.32,NNW,336,0.0,0.0,86,0.00,,,0.00,Wunderground v.1.13,2013-02-21 10:14:00,
2013-02-21 05:20:00,18.6,15.4,30.32,NNW,336,0.0,0.0,87,0.00,,,0.00,Wunderground v.1.13,2013-02-21 10:20:00,
2013-02-21 05:25:00,18.6,15.4,30.32,NNW,336,0.0,0.0,87,0.00,,,0.00,Wunderground v.1.13,2013-02-21 10:25:00,
2013-02-21 05:31:00,18.5,15.3,30.32,NNW,336,0.0,0.0,87,0.00,,,0.00,Wunderground v.1.13,2013-02-21 10:31:00,
2013-02-21 05:37:00,18.6,15.4,30.33,NNW,336,0.0,0.0,87,0.00,,,0.00,Wunderground v.1.13,2013-02-21 10:37:00,
2013-02-21 05:42:00,18.6,15.4,30.33,NNW,336,0.0,0.0,87,0.00,,,0.00,Wunderground v.1.13,2013-02-21 10:42:00,
2013-02-21 05:48:00,18.5,15.3,30.32,NNW,336,0.0,0.0,87,0.00,,,0.00,Wunderground v.1.13,2013-02-21 10:48:00,
2013-02-21 05:54:00,18.5,15.3,30.33,NNW,336,0.0,0.0,87,0.00,,,0.00,Wunderground v.1.13,2013-02-21 10:54:00,
2013-02-21 05:59:00,18.5,15.3,30.32,NNW,336,0.0,0.0,87,0.00,,,0.00,Wunderground v.1.13,2013-02-21 10:59:00,
2013-02-21 06:04:00,18.6,15.4,30.32,NNW,336,0.0,0.0,87,0.00,,,0.00,Wunderground v.1.13,2013-02-21 11:04:00,
2013-02-21 06:10:00,18.6,15.4,30.33,NNW,336,0.0,0.0,87,0.00,,,0.00,Wunderground v.1.13,2013-02-21 11:10:00,
2013-02-21 06:15:00,18.6,15.4,30.33,NNW,336,0.0,0.0,87,0.00,,,0.00,Wunderground v.1.13,2013-02-21 11:15:00,
2013-02-21 06:21:00,18.5,15.3,30.34,NNW,336,0.0,0.0,87,0.00,,,0.00,Wunderground v.1.13,2013-02-21 11:21:00,
2013-02-21 06:26:00,18.5,15.3,30.33,NNW,336,0.0,0.0,87,0.00,,,0.00,Wunderground v.1.13,2013-02-21 11:26:00,
2013-02-21 06:32:00,18.4,15.2,30.33,NNW,336,0.0,0.0,87,0.00,,,0.00,Wunderground v.1.13,2013-02-21 11:32:00,
2013-02-21 06:38:00,18.3,15.1,30.34,NNW,336,0.0,0.0,87,0.00,,,0.00,Wunderground v.1.13,2013-02-21 11:38:00,
2013-02-21 06:44:00,18.1,14.9,30.34,NNW,336,0.0,0.0,87,0.00,,,0.00,Wunderground v.1.13,2013-02-21 11:44:00,
2013-02-21 06:49:00,18.0,14.8,30.34,NNW,336,0.0,0.0,87,0.00,,,0.00,Wunderground v.1.13,2013-02-21 11:49:00,
2013-02-21 06:55:00,17.9,14.7,30.35,NNW,336,0.0,0.0,87,0.00,,,0.00,Wunderground v.1.13,2013-02-21 11:55:00,
2013-02-21 07:00:00,17.9,14.7,30.35,NNW,336,0.0,0.0,87,0.00,,,0.00,Wunderground v.1.13,2013-02-21 12:00:00,
2013-02-21 07:06:00,17.8,14.6,30.35,NNW,336,0.0,0.0,87,0.00,,,0.00,Wunderground v.1.13,2013-02-21 12:06:00,
2013-02-21 07:11:00,17.8,14.8,30.35,NNW,336,0.0,0.0,88,0.00,,,0.00,Wunderground v.1.13,2013-02-21 12:11:00,
2013-02-21 07:16:00,17.8,14.8,30.35,NNW,336,0.0,0.0,88,0.00,,,0.00,Wunderground v.1.13,2013-02-21 12:16:00,
2013-02-21 07:22:00,17.8,14.8,30.36,NNW,336,0.0,0.0,88,0.00,,,0.00,Wunderground v.1.13,2013-02-21 12:22:00,
2013-02-21 07:28:00,17.8,14.8,30.36,NNW,336,0.0,0.0,88,0.00,,,0.00,Wunderground v.1.13,2013-02-21 12:28:00,
2013-02-21 07:33:00,17.9,14.9,30.36,NNW,336,0.0,0.0,88,0.00,,,0.00,Wunderground v.1.13,2013-02-21 12:33:00,
2013-02-21 07:38:00,18.2,15.2,30.36,NNW,336,0.0,0.0,88,0.00,,,0.00,Wunderground v.1.13,2013-02-21 12:38:00,
2013-02-21 07:44:00,18.9,16.2,30.35,NNW,336,0.0,1.0,89,0.00,,,0.00,Wunderground v.1.13,2013-02-21 12:44:00,
2013-02-21 07:49:00,19.7,17.0,30.35,NNW,336,0.0,0.0,89,0.00,,,0.00,Wunderground v.1.13,2013-02-21 12:49:00,
2013-02-21 07:55:00,20.9,18.4,30.35,NNW,336,0.0,0.0,90,0.00,,,0.00,Wunderground v.1.13,2013-02-21 12:55:00,
2013-02-21 08:01:00,22.1,19.4,30.35,NNW,336,0.0,2.0,89,0.00,,,0.00,Wunderground v.1.13,2013-02-21 13:01:00,
2013-02-21 08:07:00,23.5,20.5,30.35,NNW,336,0.0,0.0,88,0.00,,,0.00,Wunderground v.1.13,2013-02-21 13:07:00,
2013-02-21 08:12:00,24.7,21.1,30.36,North,355,1.0,2.0,86,0.00,,,0.00,Wunderground v.1.13,2013-02-21 13:12:00,
2013-02-21 08:18:00,25.9,21.2,30.36,East,90,2.0,4.0,82,0.00,,,0.00,Wunderground v.1.13,2013-02-21 13:18:00,
2013-02-21 08:24:00,26.9,21.0,30.36,East,84,3.0,4.0,78,0.00,,,0.00,Wunderground v.1.13,2013-02-21 13:24:00,
2013-02-21 08:29:00,27.8,20.9,30.36,East,96,3.0,5.0,75,0.00,,,0.00,Wunderground v.1.13,2013-02-21 13:29:00,
2013-02-21 08:35:00,28.4,20.2,30.36,East,86,4.0,6.0,71,0.00,,,0.00,Wunderground v.1.13,2013-02-21 13:35:00,
2013-02-21 08:41:00,29.0,20.1,30.36,East,84,4.0,6.0,69,0.00,,,0.00,Wunderground v.1.13,2013-02-21 13:41:00,
2013-02-21 08:46:00,29.5,19.9,30.36,East,87,5.0,8.0,67,0.00,,,0.00,Wunderground v.1.13,2013-02-21 13:46:00,
2013-02-21 08:52:00,30.1,20.1,30.36,ENE,70,4.0,5.0,66,0.00,,,0.00,Wunderground v.1.13,2013-02-21 13:52:00,
2013-02-21 08:57:00,30.6,19.9,30.36,East,85,3.0,4.0,64,0.00,,,0.00,Wunderground v.1.13,2013-02-21 13:57:00,
2013-02-21 09:02:00,30.9,19.8,30.37,East,96,3.0,5.0,63,0.00,,,0.00,Wunderground v.1.13,2013-02-21 14:02:00,
2013-02-21 09:08:00,31.2,19.3,30.37,East,96,5.0,6.0,61,0.00,,,0.00,Wunderground v.1.13,2013-02-21 14:08:00,
2013-02-21 09:14:00,31.5,19.6,30.36,ESE,115,5.0,7.0,61,0.00,,,0.00,Wunderground v.1.13,2013-02-21 14:14:00,
2013-02-21 09:19:00,32.2,19.9,30.36,East,93,5.0,6.0,60,0.00,,,0.00,Wunderground v.1.13,2013-02-21 14:19:00,
2013-02-21 09:25:00,32.8,20.0,30.37,ENE,57,4.0,4.0,59,0.00,,,0.00,Wunderground v.1.13,2013-02-21 14:25:00,
2013-02-21 09:30:00,33.4,20.2,30.36,ENE,78,3.0,4.0,58,0.00,,,0.00,Wunderground v.1.13,2013-02-21 14:30:00,
2013-02-21 09:35:00,33.7,19.7,30.36,East,96,4.0,6.0,56,0.00,,,0.00,Wunderground v.1.13,2013-02-21 14:35:00,
2013-02-21 09:41:00,33.9,19.4,30.36,ENE,66,4.0,4.0,55,0.00,,,0.00,Wunderground v.1.13,2013-02-21 14:41:00,
2013-02-21 09:46:00,34.4,19.5,30.36,NE,40,4.0,4.0,54,0.00,,,0.00,Wunderground v.1.13,2013-02-21 14:46:00,
2013-02-21 09:52:00,35.1,20.5,30.35,East,95,4.0,5.0,55,0.00,,,0.00,Wunderground v.1.13,2013-02-21 14:52:00,
2013-02-21 09:58:00,35.5,19.6,30.36,East,88,4.0,7.0,52,0.00,,,0.00,Wunderground v.1.13,2013-02-21 14:58:00,
2013-02-21 10:04:00,35.8,19.9,30.36,East,84,4.0,7.0,52,0.00,,,0.00,Wunderground v.1.13,2013-02-21 15:04:00,
2013-02-21 10:09:00,36.0,20.1,30.35,East,87,3.0,7.0,52,0.00,,,0.00,Wunderground v.1.13,2013-02-21 15:09:00,
2013-02-21 10:15:00,36.4,20.0,30.35,East,94,4.0,5.0,51,0.00,,,0.00,Wunderground v.1.13,2013-02-21 15:15:00,
2013-02-21 10:21:00,36.8,20.3,30.35,East,101,3.0,4.0,51,0.00,,,0.00,Wunderground v.1.13,2013-02-21 15:21:00,
2013-02-21 10:26:00,37.0,20.1,30.35,ENE,63,3.0,3.0,50,0.00,,,0.00,Wunderground v.1.13,2013-02-21 15:26:00,
2013-02-21 10:31:00,37.3,20.3,30.34,NE,36,3.0,5.0,50,0.00,,,0.00,Wunderground v.1.13,2013-02-21 15:31:00,
2013-02-21 10:37:00,37.6,20.1,30.35,East,83,4.0,6.0,49,0.00,,,0.00,Wunderground v.1.13,2013-02-21 15:37:00,
2013-02-21 10:42:00,38.1,20.6,30.35,East,83,4.0,6.0,49,0.00,,,0.00,Wunderground v.1.13,2013-02-21 15:42:00,
2013-02-21 10:48:00,38.6,20.6,30.35,East,80,2.0,3.0,48,0.00,,,0.00,Wunderground v.1.13,2013-02-21 15:48:00,
2013-02-21 10:54:00,39.3,20.7,30.34,ENE,70,2.0,6.0,47,0.00,,,0.00,Wunderground v.1.13,2013-02-21 15:54:00,
2013-02-21 10:59:00,39.4,20.3,30.34,NNE,32,2.0,5.0,46,0.00,,,0.00,Wunderground v.1.13,2013-02-21 15:59:00,
2013-02-21 11:04:00,39.9,20.8,30.33,East,98,2.0,5.0,46,0.00,,,0.00,Wunderground v.1.13,2013-02-21 16:04:00,
2013-02-21 11:10:00,40.2,22.1,30.32,SE,125,4.0,10.0,48,0.00,,,0.00,Wunderground v.1.13,2013-02-21 16:10:00,
2013-02-21 11:15:00,40.2,21.6,30.31,East,86,5.0,5.0,47,0.00,,,0.00,Wunderground v.1.13,2013-02-21 16:15:00,
2013-02-21 11:21:00,40.6,22.4,30.31,East,90,3.0,4.0,48,0.00,,,0.00,Wunderground v.1.13,2013-02-21 16:21:00,
2013-02-21 11:27:00,41.2,22.5,30.31,ENE,69,3.0,7.0,47,0.00,,,0.00,Wunderground v.1.13,2013-02-21 16:27:00,
2013-02-21 11:32:00,41.8,23.0,30.30,East,84,2.0,4.0,47,0.00,,,0.00,Wunderground v.1.13,2013-02-21 16:32:00,
2013-02-21 11:38:00,42.0,22.2,30.30,NE,53,3.0,5.0,45,0.00,,,0.00,Wunderground v.1.13,2013-02-21 16:38:00,
2013-02-21 11:43:00,42.7,22.3,30.30,East,82,3.0,4.0,44,0.00,,,0.00,Wunderground v.1.13,2013-02-21 16:43:00,
2013-02-21 11:49:00,43.0,22.0,30.30,ENE,78,2.0,7.0,43,0.00,,,0.00,Wunderground v.1.13,2013-02-21 16:49:00,
2013-02-21 11:55:00,43.0,21.4,30.29,NE,42,4.0,4.0,42,0.00,,,0.00,Wunderground v.1.13,2013-02-21 16:55:00,
2013-02-21 12:00:00,43.5,22.5,30.29,ESE,121,4.0,4.0,43,0.00,,,0.00,Wunderground v.1.13,2013-02-21 17:00:00,
2013-02-21 12:06:00,43.8,22.2,30.29,NE,41,4.0,5.0,42,0.00,,,0.00,Wunderground v.1.13,2013-02-21 17:06:00,
2013-02-21 12:12:00,44.1,21.9,30.28,East,82,3.0,3.0,41,0.00,,,0.00,Wunderground v.1.13,2013-02-21 17:12:00,
2013-02-21 12:18:00,44.1,21.3,30.28,NNE,22,4.0,8.0,40,0.00,,,0.00,Wunderground v.1.13,2013-02-21 17:18:00,
2013-02-21 12:23:00,44.4,21.6,30.28,ENE,77,5.0,5.0,40,0.00,,,0.00,Wunderground v.1.13,2013-02-21 17:23:00,
2013-02-21 12:29:00,44.7,21.8,30.28,NNE,28,4.0,5.0,40,0.00,,,0.00,Wunderground v.1.13,2013-02-21 17:29:00,
2013-02-21 12:34:00,44.9,21.4,30.28,East,82,5.0,11.0,39,0.00,,,0.00,Wunderground v.1.13,2013-02-21 17:34:00,
2013-02-21 12:40:00,45.2,21.7,30.27,East,97,4.0,4.0,39,0.00,,,0.00,Wunderground v.1.13,2013-02-21 17:40:00,
2013-02-21 12:46:00,45.3,22.4,30.26,NE,39,4.0,4.0,40,0.00,,,0.00,Wunderground v.1.13,2013-02-21 17:46:00,
2013-02-21 12:51:00,46.0,23.0,30.25,NE,44,3.0,3.0,40,0.00,,,0.00,Wunderground v.1.13,2013-02-21 17:51:00,
2013-02-21 12:56:00,46.4,22.8,30.25,NE,55,2.0,3.0,39,0.00,,,0.00,Wunderground v.1.13,2013-02-21 17:56:00,
2013-02-21 13:01:00,46.6,22.3,30.24,NNE,30,3.0,11.0,38,0.00,,,0.00,Wunderground v.1.13,2013-02-21 18:01:00,
2013-02-21 13:07:00,46.3,22.0,30.24,ENE,70,6.0,10.0,38,0.00,,,0.00,Wunderground v.1.13,2013-02-21 18:07:00,
2013-02-21 13:12:00,46.5,21.6,30.23,NE,39,5.0,6.0,37,0.00,,,0.00,Wunderground v.1.13,2013-02-21 18:12:00,
2013-02-21 13:17:00,46.3,21.4,30.23,NE,54,5.0,8.0,37,0.00,,,0.00,Wunderground v.1.13,2013-02-21 18:17:00,
2013-02-21 13:22:00,45.9,22.3,30.23,ENE,62,7.0,10.0,39,0.00,,,0.00,Wunderground v.1.13,2013-02-21 18:22:00,
2013-02-21 13:27:00,46.2,22.6,30.23,East,99,7.0,11.0,39,0.00,,,0.00,Wunderground v.1.13,2013-02-21 18:27:00,
2013-02-21 13:33:00,46.8,22.5,30.23,NE,39,5.0,11.0,38,0.00,,,0.00,Wunderground v.1.13,2013-02-21 18:33:00,
2013-02-21 13:38:00,47.7,23.3,30.23,NE,40,4.0,11.0,38,0.00,,,0.00,Wunderground v.1.13,2013-02-21 18:38:00,
2013-02-21 13:43:00,48.3,23.2,30.23,North,9,3.0,11.0,37,0.00,,,0.00,Wunderground v.1.13,2013-02-21 18:43:00,
2013-02-21 13:48:00,48.7,23.6,30.22,ENE,65,2.0,11.0,37,0.00,,,0.00,Wunderground v.1.13,2013-02-21 18:48:00,
2013-02-21 13:54:00,48.8,23.0,30.22,East,92,4.0,11.0,36,0.00,,,0.00,Wunderground v.1.13,2013-02-21 18:54:00,
2013-02-21 13:59:00,48.8,23.0,30.22,NE,36,5.0,11.0,36,0.00,,,0.00,Wunderground v.1.13,2013-02-21 18:59:00,
2013-02-21 14:05:00,48.9,22.4,30.22,NNE,32,4.0,11.0,35,0.00,,,0.00,Wunderground v.1.13,2013-02-21 19:05:00,
2013-02-21 14:11:00,49.0,23.2,30.22,East,79,4.0,11.0,36,0.00,,,0.00,Wunderground v.1.13,2013-02-21 19:11:00,
2013-02-21 14:16:00,49.1,23.3,30.21,ENE,67,3.0,11.0,36,0.00,,,0.00,Wunderground v.1.13,2013-02-21 19:16:00,
2013-02-21 14:21:00,49.4,22.9,30.21,ENE,67,2.0,11.0,35,0.00,,,0.00,Wunderground v.1.13,2013-02-21 19:21:00,
2013-02-21 14:26:00,49.6,22.3,30.20,ENE,67,2.0,11.0,34,0.00,,,0.00,Wunderground v.1.13,2013-02-21 19:26:00,
2013-02-21 14:32:00,49.7,23.1,30.22,East,92,2.0,11.0,35,0.00,,,0.00,Wunderground v.1.13,2013-02-21 19:32:00,
2013-02-21 14:37:00,49.8,22.5,30.21,NE,36,2.0,11.0,34,0.00,,,0.00,Wunderground v.1.13,2013-02-21 19:37:00,
2013-02-21 14:42:00,49.6,23.0,30.20,East,80,3.0,11.0,35,0.00,,,0.00,Wunderground v.1.13,2013-02-21 19:42:00,
2013-02-21 14:47:00,49.7,23.1,30.20,East,94,3.0,11.0,35,0.00,,,0.00,Wunderground v.1.13,2013-02-21 19:47:00,
2013-02-21 14:53:00,50.2,23.6,30.20,East,96,2.0,11.0,35,0.00,,,0.00,Wunderground v.1.13,2013-02-21 19:53:00,
2013-02-21 14:58:00,50.3,22.3,30.21,ENE,72,2.0,11.0,33,0.00,,,0.00,Wunderground v.1.13,2013-02-21 19:58:00,
2013-02-21 15:03:00,50.5,23.1,30.20,East,83,2.0,11.0,34,0.00,,,0.00,Wunderground v.1.13,2013-02-21 20:03:00,
2013-02-21 15:09:00,50.6,23.2,30.20,East,99,2.0,11.0,34,0.00,,,0.00,Wunderground v.1.13,2013-02-21 20:09:00,
2013-02-21 15:14:00,50.6,22.5,30.20,ENE,69,2.0,11.0,33,0.00,,,0.00,Wunderground v.1.13,2013-02-21 20:14:00,
2013-02-21 15:19:00,50.7,23.3,30.20,ENE,60,2.0,11.0,34,0.00,,,0.00,Wunderground v.1.13,2013-02-21 20:19:00,
2013-02-21 15:25:00,50.7,23.3,30.20,ENE,78,2.0,2.0,34,0.00,,,0.00,Wunderground v.1.13,2013-02-21 20:25:00,
2013-02-21 15:31:00,50.7,22.6,30.20,East,85,1.0,11.0,33,0.00,,,0.00,Wunderground v.1.13,2013-02-21 20:31:00,
2013-02-21 15:36:00,50.7,22.6,30.20,East,89,1.0,11.0,33,0.00,,,0.00,Wunderground v.1.13,2013-02-21 20:36:00,
2013-02-21 15:41:00,50.5,21.7,30.20,East,83,3.0,11.0,32,0.00,,,0.00,Wunderground v.1.13,2013-02-21 20:41:00,
2013-02-21 15:46:00,50.4,23.1,30.19,East,80,4.0,11.0,34,0.00,,,0.00,Wunderground v.1.13,2013-02-21 20:46:00,
2013-02-21 15:52:00,50.6,23.9,30.19,ENE,60,2.0,11.0,35,0.00,,,0.00,Wunderground v.1.13,2013-02-21 20:52:00,
2013-02-21 15:57:00,50.7,23.3,30.18,East,96,1.0,11.0,34,0.00,,,0.00,Wunderground v.1.13,2013-02-21 20:57:00,
2013-02-21 16:02:00,50.8,22.7,30.18,ENE,77,2.0,4.0,33,0.00,,,0.00,Wunderground v.1.13,2013-02-21 21:02:00,
2013-02-21 16:07:00,50.6,22.5,30.18,NNE,19,2.0,11.0,33,0.00,,,0.00,Wunderground v.1.13,2013-02-21 21:07:00,
2013-02-21 16:12:00,50.6,21.8,30.18,ENE,69,2.0,11.0,32,0.00,,,0.00,Wunderground v.1.13,2013-02-21 21:12:00,
2013-02-21 16:17:00,50.4,22.3,30.17,ENE,63,3.0,11.0,33,0.00,,,0.00,Wunderground v.1.13,2013-02-21 21:17:00,
2013-02-21 16:23:00,50.3,21.5,30.17,NE,50,3.0,11.0,32,0.00,,,0.00,Wunderground v.1.13,2013-02-21 21:23:00,
2013-02-21 16:28:00,50.3,22.3,30.17,ESE,102,3.0,11.0,33,0.00,,,0.00,Wunderground v.1.13,2013-02-21 21:28:00,
2013-02-21 16:33:00,50.1,22.1,30.16,ESE,104,3.0,11.0,33,0.00,,,0.00,Wunderground v.1.13,2013-02-21 21:33:00,
2013-02-21 16:38:00,49.9,21.9,30.16,East,95,4.0,11.0,33,0.00,,,0.00,Wunderground v.1.13,2013-02-21 21:38:00,
2013-02-21 16:43:00,49.7,21.7,30.16,East,92,5.0,11.0,33,0.00,,,0.00,Wunderground v.1.13,2013-02-21 21:43:00,
2013-02-21 16:49:00,49.5,22.3,30.15,East,86,5.0,11.0,34,0.00,,,0.00,Wunderground v.1.13,2013-02-21 21:49:00,
2013-02-21 16:54:00,49.4,22.9,30.16,East,86,5.0,11.0,35,0.00,,,0.00,Wunderground v.1.13,2013-02-21 21:54:00,
2013-02-21 16:59:00,49.2,22.7,30.15,East,94,4.0,11.0,35,0.00,,,0.00,Wunderground v.1.13,2013-02-21 21:59:00,
2013-02-21 17:04:00,49.1,22.6,30.15,ENE,76,5.0,11.0,35,0.00,,,0.00,Wunderground v.1.13,2013-02-21 22:04:00,
2013-02-21 17:09:00,49.0,23.2,30.15,East,82,5.0,11.0,36,0.00,,,0.00,Wunderground v.1.13,2013-02-21 22:09:00,
2013-02-21 17:14:00,49.0,22.5,30.16,ENE,78,4.0,11.0,35,0.00,,,0.00,Wunderground v.1.13,2013-02-21 22:14:00,
2013-02-21 17:19:00,48.9,22.4,30.16,East,87,5.0,11.0,35,0.00,,,0.00,Wunderground v.1.13,2013-02-21 22:19:00,
2013-02-21 17:25:00,48.8,23.0,30.16,East,93,3.0,11.0,36,0.00,,,0.00,Wunderground v.1.13,2013-02-21 22:25:00,
2013-02-21 17:30:00,48.7,23.6,30.16,East,80,3.0,3.0,37,0.00,,,0.00,Wunderground v.1.13,2013-02-21 22:30:00,
2013-02-21 17:35:00,48.6,22.8,30.16,ENE,74,4.0,11.0,36,0.00,,,0.00,Wunderground v.1.13,2013-02-21 22:35:00,
2013-02-21 17:41:00,48.5,22.1,30.16,East,98,4.0,11.0,35,0.00,,,0.00,Wunderground v.1.13,2013-02-21 22:41:00,
2013-02-21 17:47:00,48.3,21.9,30.15,NE,55,4.0,11.0,35,0.00,,,0.00,Wunderground v.1.13,2013-02-21 22:47:00,
2013-02-21 17:52:00,48.2,21.8,30.16,ENE,78,5.0,11.0,35,0.00,,,0.00,Wunderground v.1.13,2013-02-21 22:52:00,
2013-02-21 17:58:00,48.1,21.7,30.15,ESE,103,5.0,11.0,35,0.00,,,0.00,Wunderground v.1.13,2013-02-21 22:58:00,
2013-02-21 18:04:00,47.9,22.2,30.14,East,87,4.0,11.0,36,0.00,,,0.00,Wunderground v.1.13,2013-02-21 23:04:00,
2013-02-21 18:09:00,47.8,21.4,30.13,East,86,5.0,11.0,35,0.00,,,0.00,Wunderground v.1.13,2013-02-21 23:09:00,
2013-02-21 18:14:00,47.6,21.3,30.13,East,90,6.0,11.0,35,0.00,,,0.00,Wunderground v.1.13,2013-02-21 23:14:00,
2013-02-21 18:19:00,47.4,21.7,30.12,East,96,6.0,11.0,36,0.00,,,0.00,Wunderground v.1.13,2013-02-21 23:19:00,
2013-02-21 18:24:00,47.3,21.7,30.12,ESE,104,6.0,11.0,36,0.00,,,0.00,Wunderground v.1.13,2013-02-21 23:24:00,
2013-02-21 18:29:00,47.2,21.6,30.12,East,82,5.0,11.0,36,0.00,,,0.00,Wunderground v.1.13,2013-02-21 23:29:00,
2013-02-21 18:35:00,47.0,22.0,30.12,East,80,5.0,11.0,37,0.00,,,0.00,Wunderground v.1.13,2013-02-21 23:35:00,
2013-02-21 18:40:00,47.0,22.0,30.12,East,82,5.0,11.0,37,0.00,,,0.00,Wunderground v.1.13,2013-02-21 23:40:00,
2013-02-21 18:45:00,47.0,22.0,30.12,East,88,5.0,5.0,37,0.00,,,0.00,Wunderground v.1.13,2013-02-21 23:45:00,
2013-02-21 18:50:00,46.9,22.0,30.11,East,85,5.0,11.0,37,0.00,,,0.00,Wunderground v.1.13,2013-02-21 23:50:00,
2013-02-21 18:56:00,46.9,22.0,30.12,ENE,69,5.0,11.0,37,0.00,,,0.00,Wunderground v.1.13,2013-02-21 23:56:00,
2013-02-21 19:01:00,46.9,21.3,30.12,East,93,5.0,11.0,36,0.00,,,0.00,Wunderground v.1.13,2013-02-22 00:01:00,
2013-02-21 19:07:00,47.0,21.4,30.12,East,84,5.0,11.0,36,0.00,,,0.00,Wunderground v.1.13,2013-02-22 00:07:00,
2013-02-21 19:12:00,47.0,22.0,30.12,ENE,71,5.0,11.0,37,0.00,,,0.00,Wunderground v.1.13,2013-02-22 00:12:00,
2013-02-21 19:17:00,47.1,21.5,30.13,East,81,4.0,11.0,36,0.00,,,0.00,Wunderground v.1.13,2013-02-22 00:17:00,
2013-02-21 19:22:00,47.1,21.5,30.13,East,95,4.0,11.0,36,0.00,,,0.00,Wunderground v.1.13,2013-02-22 00:22:00,
2013-02-21 19:28:00,47.1,21.5,30.13,ENE,74,3.0,11.0,36,0.00,,,0.00,Wunderground v.1.13,2013-02-22 00:28:00,
2013-02-21 19:33:00,47.1,22.1,30.13,ENE,76,1.0,11.0,37,0.00,,,0.00,Wunderground v.1.13,2013-02-22 00:33:00,
2013-02-21 19:38:00,47.2,22.2,30.13,East,82,1.0,11.0,37,0.00,,,0.00,Wunderground v.1.13,2013-02-22 00:38:00,
2013-02-21 19:43:00,47.2,22.2,30.14,East,85,1.0,11.0,37,0.00,,,0.00,Wunderground v.1.13,2013-02-22 00:43:00,
2013-02-21 19:48:00,47.2,22.9,30.14,East,85,1.0,11.0,38,0.00,,,0.00,Wunderground v.1.13,2013-02-22 00:48:00,
2013-02-21 19:54:00,47.2,22.9,30.15,East,83,0.0,11.0,38,0.00,,,0.00,Wunderground v.1.13,2013-02-22 00:54:00,
2013-02-21 19:59:00,47.1,23.4,30.16,East,83,0.0,11.0,39,0.00,,,0.00,Wunderground v.1.13,2013-02-22 00:59:00,
2013-02-21 20:04:00,47.2,24.1,30.17,East,83,0.0,11.0,40,0.00,,,0.00,Wunderground v.1.13,2013-02-22 01:04:00,
2013-02-21 20:09:00,47.2,25.3,30.17,East,82,0.0,11.0,42,0.00,,,0.00,Wunderground v.1.13,2013-02-22 01:09:00,
2013-02-21 20:15:00,47.2,29.5,30.17,East,82,0.0,11.0,50,0.00,,,0.00,Wunderground v.1.13,2013-02-22 01:15:00,
2013-02-21 20:20:00,47.0,32.1,30.17,East,82,0.0,11.0,56,0.00,,,0.00,Wunderground v.1.13,2013-02-22 01:20:00,
2013-02-21 20:25:00,46.5,33.4,30.16,East,82,0.0,11.0,60,0.00,,,0.00,Wunderground v.1.13,2013-02-22 01:25:00,
2013-02-21 20:30:00,46.0,34.9,30.16,East,82,0.0,11.0,65,0.00,,,0.00,Wunderground v.1.13,2013-02-22 01:30:00,
2013-02-21 20:35:00,45.0,35.4,30.17,East,82,0.0,11.0,69,0.00,,,0.00,Wunderground v.1.13,2013-02-22 01:35:00,
2013-02-21 20:41:00,44.1,35.3,30.17,East,82,0.0,11.0,71,0.00,,,0.01,Wunderground v.1.13,2013-02-22 01:41:00,
2013-02-21 20:46:00,43.5,35.8,30.18,East,82,0.0,11.0,74,0.00,,,0.01,Wunderground v.1.13,2013-02-22 01:46:00,
2013-02-21 20:51:00,43.0,35.6,30.19,East,82,0.0,11.0,75,0.00,,,0.01,Wunderground v.1.13,2013-02-22 01:51:00,
2013-02-21 20:57:00,42.5,35.8,30.19,East,82,0.0,11.0,77,0.00,,,0.01,Wunderground v.1.13,2013-02-22 01:57:00,
2013-02-21 21:02:00,42.1,36.1,30.19,East,82,0.0,11.0,79,0.00,,,0.02,Wunderground v.1.13,2013-02-22 02:02:00,
2013-02-21 21:07:00,41.8,36.1,30.18,East,82,0.0,11.0,80,0.00,,,0.02,Wunderground v.1.13,2013-02-22 02:07:00,
2013-02-21 21:12:00,41.5,35.8,30.18,East,82,0.0,11.0,80,0.00,,,0.02,Wunderground v.1.13,2013-02-22 02:12:00,
2013-02-21 21:17:00,41.3,35.9,30.19,East,82,0.0,11.0,81,0.04,,,0.03,Wunderground v.1.13,2013-02-22 02:17:00,
2013-02-21 21:23:00,41.1,36.0,30.19,East,82,0.0,11.0,82,0.04,,,0.03,Wunderground v.1.13,2013-02-22 02:23:00,
2013-02-21 21:28:00,40.9,36.1,30.20,East,82,0.0,11.0,83,0.05,,,0.04,Wunderground v.1.13,2013-02-22 02:28:00,
2013-02-21 21:34:00,40.6,36.1,30.19,East,82,0.0,11.0,84,0.08,,,0.05,Wunderground v.1.13,2013-02-22 02:34:00,
2013-02-21 21:39:00,40.4,36.2,30.18,East,86,1.0,11.0,85,0.09,,,0.06,Wunderground v.1.13,2013-02-22 02:39:00,
2013-02-21 21:44:00,40.1,36.2,30.17,East,89,2.0,11.0,86,0.11,,,0.07,Wunderground v.1.13,2013-02-22 02:44:00,
2013-02-21 21:50:00,39.8,36.2,30.17,East,92,2.0,11.0,87,0.10,,,0.07,Wunderground v.1.13,2013-02-22 02:50:00,
2013-02-21 21:55:00,39.5,36.0,30.17,East,96,3.0,11.0,87,0.10,,,0.08,Wunderground v.1.13,2013-02-22 02:55:00,
2013-02-21 22:00:00,39.4,36.1,30.18,East,96,2.0,2.0,88,0.06,,,0.08,Wunderground v.1.13,2013-02-22 03:00:00,
2013-02-21 22:05:00,39.3,36.0,30.19,East,98,1.0,1.0,88,0.05,,,0.08,Wunderground v.1.13,2013-02-22 03:05:00,
2013-02-21 22:10:00,39.2,35.9,30.19,East,98,0.0,11.0,88,0.09,,,0.09,Wunderground v.1.13,2013-02-22 03:10:00,
2013-02-21 22:15:00,39.2,35.9,30.19,East,98,0.0,11.0,88,0.10,,,0.10,Wunderground v.1.13,2013-02-22 03:15:00,
2013-02-21 22:21:00,39.1,35.8,30.19,East,98,0.0,11.0,88,0.13,,,0.11,Wunderground v.1.13,2013-02-22 03:21:00,
2013-02-21 22:26:00,39.1,35.8,30.20,East,98,0.0,11.0,88,0.14,,,0.12,Wunderground v.1.13,2013-02-22 03:26:00,
2013-02-21 22:31:00,39.1,35.8,30.20,East,98,0.0,11.0,88,0.12,,,0.13,Wunderground v.1.13,2013-02-22 03:31:00,
2013-02-21 22:36:00,39.1,36.1,30.20,East,98,0.0,11.0,89,0.18,,,0.14,Wunderground v.1.13,2013-02-22 03:36:00,
2013-02-21 22:42:00,39.1,36.1,30.20,East,98,0.0,11.0,89,0.15,,,0.16,Wunderground v.1.13,2013-02-22 03:42:00,
2013-02-21 22:47:00,39.1,36.1,30.19,East,98,0.0,11.0,89,0.12,,,0.17,Wunderground v.1.13,2013-02-22 03:47:00,
2013-02-21 22:53:00,38.9,35.9,30.18,East,92,1.0,11.0,89,0.11,,,0.18,Wunderground v.1.13,2013-02-22 03:53:00,
2013-02-21 22:58:00,38.8,35.8,30.18,East,93,2.0,11.0,89,0.13,,,0.19,Wunderground v.1.13,2013-02-22 03:58:00,
2013-02-21 23:03:00,38.7,35.7,30.20,East,93,1.0,11.0,89,0.13,,,0.20,Wunderground v.1.13,2013-02-22 04:03:00,
2013-02-21 23:09:00,38.7,35.7,30.20,East,93,0.0,11.0,89,0.10,,,0.21,Wunderground v.1.13,2013-02-22 04:09:00,
2013-02-21 23:14:00,38.8,35.8,30.21,East,85,1.0,11.0,89,0.19,,,0.23,Wunderground v.1.13,2013-02-22 04:14:00,
2013-02-21 23:19:00,38.8,36.1,30.21,ENE,78,1.0,11.0,90,0.22,,,0.24,Wunderground v.1.13,2013-02-22 04:19:00,
2013-02-21 23:25:00,38.8,36.1,30.21,ENE,78,0.0,11.0,90,0.21,,,0.26,Wunderground v.1.13,2013-02-22 04:25:00,
2013-02-21 23:30:00,38.7,36.0,30.21,ENE,74,0.0,11.0,90,0.39,,,0.28,Wunderground v.1.13,2013-02-22 04:30:00,
2013-02-21 23:35:00,38.7,36.0,30.20,ENE,73,0.0,11.0,90,0.18,,,0.30,Wunderground v.1.13,2013-02-22 04:35:00,
2013-02-21 23:40:00,38.6,35.9,30.20,ENE,73,0.0,11.0,90,0.19,,,0.32,Wunderground v.1.13,2013-02-22 04:40:00,
2013-02-21 23:45:00,38.6,35.9,30.21,ENE,73,0.0,11.0,90,0.12,,,0.33,Wunderground v.1.13,2013-02-22 04:45:00,
2013-02-21 23:51:00,38.6,35.9,30.20,ENE,73,0.0,11.0,90,0.13,,,0.34,Wunderground v.1.13,2013-02-22 04:51:00,
2013-02-21 23:56:00,38.6,35.9,30.19,ENE,73,0.0,11.0,90,0.11,,,0.35,Wunderground v.1.13,2013-02-22 04:56:00,